sensor_id;sensor_type;location;lat;lon;timestamp;temperature;humidity
8914;DHT22;4492;48.736;9.092;2023-07-13T00:01:13;17.80;98.60
8914;DHT22;4492;48.736;9.092;2023-07-13T00:03:39;17.80;98.50
8914;DHT22;4492;48.736;9.092;2023-07-13T00:06:07;17.80;98.60
8914;DHT22;4492;48.736;9.092;2023-07-13T00:08:33;17.80;98.50
8914;DHT22;4492;48.736;9.092;2023-07-13T00:11:03;17.70;98.60
8914;DHT22;4492;48.736;9.092;2023-07-13T00:13:30;17.60;98.50
8914;DHT22;4492;48.736;9.092;2023-07-13T00:15:58;17.50;98.70
8914;DHT22;4492;48.736;9.092;2023-07-13T00:18:24;17.50;99.00
8914;DHT22;4492;48.736;9.092;2023-07-13T00:20:50;17.50;98.90
8914;DHT22;4492;48.736;9.092;2023-07-13T00:23:15;17.40;98.90
8914;DHT22;4492;48.736;9.092;2023-07-13T00:25:42;17.30;99.00
8914;DHT22;4492;48.736;9.092;2023-07-13T00:28:07;17.20;99.30
8914;DHT22;4492;48.736;9.092;2023-07-13T00:30:33;17.10;99.30
8914;DHT22;4492;48.736;9.092;2023-07-13T00:32:58;17.10;99.30
8914;DHT22;4492;48.736;9.092;2023-07-13T00:35:27;17.00;99.40
8914;DHT22;4492;48.736;9.092;2023-07-13T00:37:52;17.00;99.40
8914;DHT22;4492;48.736;9.092;2023-07-13T00:40:18;16.90;99.70
8914;DHT22;4492;48.736;9.092;2023-07-13T00:42:43;16.80;99.80
8914;DHT22;4492;48.736;9.092;2023-07-13T00:47:43;16.60;99.90
8914;DHT22;4492;48.736;9.092;2023-07-13T00:50:10;16.50;99.90
8914;DHT22;4492;48.736;9.092;2023-07-13T00:52:39;16.50;99.90
8914;DHT22;4492;48.736;9.092;2023-07-13T00:55:05;16.50;99.90
8914;DHT22;4492;48.736;9.092;2023-07-13T00:57:31;16.60;99.90
8914;DHT22;4492;48.736;9.092;2023-07-13T00:59:59;16.60;99.60
8914;DHT22;4492;48.736;9.092;2023-07-13T01:02:28;16.60;99.60
8914;DHT22;4492;48.736;9.092;2023-07-13T01:04:54;16.60;99.70
8914;DHT22;4492;48.736;9.092;2023-07-13T01:07:19;16.60;99.90
8914;DHT22;4492;48.736;9.092;2023-07-13T01:09:45;16.60;99.70
8914;DHT22;4492;48.736;9.092;2023-07-13T01:12:11;16.50;99.60
8914;DHT22;4492;48.736;9.092;2023-07-13T01:14:37;16.60;99.60
8914;DHT22;4492;48.736;9.092;2023-07-13T01:17:04;16.60;99.60
8914;DHT22;4492;48.736;9.092;2023-07-13T01:19:42;16.60;99.30
8914;DHT22;4492;48.736;9.092;2023-07-13T01:22:16;16.60;99.20
8914;DHT22;4492;48.736;9.092;2023-07-13T01:24:44;16.50;99.30
8914;DHT22;4492;48.736;9.092;2023-07-13T01:27:12;16.50;99.20
8914;DHT22;4492;48.736;9.092;2023-07-13T01:29:40;16.50;99.10
8914;DHT22;4492;48.736;9.092;2023-07-13T01:32:12;16.40;99.30
8914;DHT22;4492;48.736;9.092;2023-07-13T01:34:38;16.40;99.30
8914;DHT22;4492;48.736;9.092;2023-07-13T01:37:11;16.30;99.30
8914;DHT22;4492;48.736;9.092;2023-07-13T01:39:37;16.30;99.30
8914;DHT22;4492;48.736;9.092;2023-07-13T01:42:03;16.20;99.70
8914;DHT22;4492;48.736;9.092;2023-07-13T01:44:29;16.10;99.90
8914;DHT22;4492;48.736;9.092;2023-07-13T01:46:54;16.10;99.90
8914;DHT22;4492;48.736;9.092;2023-07-13T01:49:20;16.00;99.90
8914;DHT22;4492;48.736;9.092;2023-07-13T01:51:46;15.90;99.90
8914;DHT22;4492;48.736;9.092;2023-07-13T01:54:11;15.90;99.90
8914;DHT22;4492;48.736;9.092;2023-07-13T01:56:37;15.90;99.90
8914;DHT22;4492;48.736;9.092;2023-07-13T01:59:02;15.90;99.90
8914;DHT22;4492;48.736;9.092;2023-07-13T02:01:28;15.80;99.90
8914;DHT22;4492;48.736;9.092;2023-07-13T02:03:53;15.70;99.90
8914;DHT22;4492;48.736;9.092;2023-07-13T02:06:19;15.60;99.90
8914;DHT22;4492;48.736;9.092;2023-07-13T02:08:44;15.50;99.90
8914;DHT22;4492;48.736;9.092;2023-07-13T02:11:10;15.50;99.90
8914;DHT22;4492;48.736;9.092;2023-07-13T02:13:35;15.50;99.90
8914;DHT22;4492;48.736;9.092;2023-07-13T02:16:01;15.40;99.90
8914;DHT22;4492;48.736;9.092;2023-07-13T02:18:27;15.30;99.90
8914;DHT22;4492;48.736;9.092;2023-07-13T02:20:52;15.30;99.90
8914;DHT22;4492;48.736;9.092;2023-07-13T02:23:18;15.30;99.90
8914;DHT22;4492;48.736;9.092;2023-07-13T02:25:44;15.30;99.90
8914;DHT22;4492;48.736;9.092;2023-07-13T02:28:10;15.20;99.90
8914;DHT22;4492;48.736;9.092;2023-07-13T02:30:36;15.10;99.90
8914;DHT22;4492;48.736;9.092;2023-07-13T02:33:01;15.10;99.90
8914;DHT22;4492;48.736;9.092;2023-07-13T02:35:27;15.00;99.90
8914;DHT22;4492;48.736;9.092;2023-07-13T02:37:53;14.90;99.90
8914;DHT22;4492;48.736;9.092;2023-07-13T02:40:18;14.80;99.90
8914;DHT22;4492;48.736;9.092;2023-07-13T02:42:44;14.70;99.90
8914;DHT22;4492;48.736;9.092;2023-07-13T02:45:10;14.60;99.90
8914;DHT22;4492;48.736;9.092;2023-07-13T02:47:36;14.60;99.90
8914;DHT22;4492;48.736;9.092;2023-07-13T02:50:02;14.50;99.90
8914;DHT22;4492;48.736;9.092;2023-07-13T02:52:28;14.50;99.90
8914;DHT22;4492;48.736;9.092;2023-07-13T02:54:54;14.40;99.90
8914;DHT22;4492;48.736;9.092;2023-07-13T02:57:19;14.30;99.90
8914;DHT22;4492;48.736;9.092;2023-07-13T02:59:45;14.30;99.90
8914;DHT22;4492;48.736;9.092;2023-07-13T03:02:10;14.20;99.90
8914;DHT22;4492;48.736;9.092;2023-07-13T03:04:37;14.20;99.90
8914;DHT22;4492;48.736;9.092;2023-07-13T03:07:03;14.20;99.90
8914;DHT22;4492;48.736;9.092;2023-07-13T03:09:30;14.10;99.90
8914;DHT22;4492;48.736;9.092;2023-07-13T03:11:55;14.10;99.90
8914;DHT22;4492;48.736;9.092;2023-07-13T03:14:22;14.10;99.90
8914;DHT22;4492;48.736;9.092;2023-07-13T03:16:48;14.00;99.90
8914;DHT22;4492;48.736;9.092;2023-07-13T03:19:14;14.00;99.90
8914;DHT22;4492;48.736;9.092;2023-07-13T03:21:39;14.00;99.90
8914;DHT22;4492;48.736;9.092;2023-07-13T03:24:05;14.10;99.90
8914;DHT22;4492;48.736;9.092;2023-07-13T03:26:31;14.10;99.90
8914;DHT22;4492;48.736;9.092;2023-07-13T03:28:57;14.20;99.90
8914;DHT22;4492;48.736;9.092;2023-07-13T03:31:25;14.30;99.90
8914;DHT22;4492;48.736;9.092;2023-07-13T03:33:51;14.40;99.90
8914;DHT22;4492;48.736;9.092;2023-07-13T03:36:23;14.50;99.90
8914;DHT22;4492;48.736;9.092;2023-07-13T03:38:52;14.60;99.90
8914;DHT22;4492;48.736;9.092;2023-07-13T03:41:18;14.60;99.90
8914;DHT22;4492;48.736;9.092;2023-07-13T03:43:44;14.70;99.90
8914;DHT22;4492;48.736;9.092;2023-07-13T03:46:10;14.80;99.90
8914;DHT22;4492;48.736;9.092;2023-07-13T03:48:35;14.80;99.90
8914;DHT22;4492;48.736;9.092;2023-07-13T03:51:01;14.90;99.90
8914;DHT22;4492;48.736;9.092;2023-07-13T03:53:27;15.00;99.90
8914;DHT22;4492;48.736;9.092;2023-07-13T03:55:52;15.10;99.90
8914;DHT22;4492;48.736;9.092;2023-07-13T03:58:33;15.20;99.90
8914;DHT22;4492;48.736;9.092;2023-07-13T04:01:00;15.40;99.90
8914;DHT22;4492;48.736;9.092;2023-07-13T04:03:26;15.40;99.90
8914;DHT22;4492;48.736;9.092;2023-07-13T04:05:54;15.50;99.90
8914;DHT22;4492;48.736;9.092;2023-07-13T04:08:19;15.40;99.90
8914;DHT22;4492;48.736;9.092;2023-07-13T04:10:45;15.40;99.90
8914;DHT22;4492;48.736;9.092;2023-07-13T04:13:10;15.40;99.90
8914;DHT22;4492;48.736;9.092;2023-07-13T04:15:36;15.40;99.90
8914;DHT22;4492;48.736;9.092;2023-07-13T04:18:01;15.40;99.90
8914;DHT22;4492;48.736;9.092;2023-07-13T04:20:28;15.40;99.90
8914;DHT22;4492;48.736;9.092;2023-07-13T04:22:54;15.40;99.90
8914;DHT22;4492;48.736;9.092;2023-07-13T04:25:20;15.30;99.90
8914;DHT22;4492;48.736;9.092;2023-07-13T04:27:46;15.30;99.90
8914;DHT22;4492;48.736;9.092;2023-07-13T04:30:11;15.30;99.90
8914;DHT22;4492;48.736;9.092;2023-07-13T04:32:37;15.20;99.90
8914;DHT22;4492;48.736;9.092;2023-07-13T04:35:02;15.20;99.90
8914;DHT22;4492;48.736;9.092;2023-07-13T04:37:28;15.20;99.90
8914;DHT22;4492;48.736;9.092;2023-07-13T04:39:54;15.20;99.90
8914;DHT22;4492;48.736;9.092;2023-07-13T04:42:20;15.20;99.90
8914;DHT22;4492;48.736;9.092;2023-07-13T04:44:49;15.20;99.90
8914;DHT22;4492;48.736;9.092;2023-07-13T04:47:15;15.20;99.90
8914;DHT22;4492;48.736;9.092;2023-07-13T04:49:41;15.20;99.90
8914;DHT22;4492;48.736;9.092;2023-07-13T04:52:07;15.30;99.90
8914;DHT22;4492;48.736;9.092;2023-07-13T04:54:33;15.30;99.90
8914;DHT22;4492;48.736;9.092;2023-07-13T04:56:59;15.30;99.90
8914;DHT22;4492;48.736;9.092;2023-07-13T04:59:24;15.40;99.90
8914;DHT22;4492;48.736;9.092;2023-07-13T05:01:50;15.50;99.90
8914;DHT22;4492;48.736;9.092;2023-07-13T05:04:16;15.60;99.90
8914;DHT22;4492;48.736;9.092;2023-07-13T05:06:42;15.60;99.90
8914;DHT22;4492;48.736;9.092;2023-07-13T05:09:07;15.70;99.90
8914;DHT22;4492;48.736;9.092;2023-07-13T05:11:33;15.80;99.90
8914;DHT22;4492;48.736;9.092;2023-07-13T05:13:59;16.00;99.90
8914;DHT22;4492;48.736;9.092;2023-07-13T05:16:26;16.20;99.90
8914;DHT22;4492;48.736;9.092;2023-07-13T05:18:52;16.40;99.90
8914;DHT22;4492;48.736;9.092;2023-07-13T05:21:18;16.60;99.90
8914;DHT22;4492;48.736;9.092;2023-07-13T05:23:43;16.70;99.90
8914;DHT22;4492;48.736;9.092;2023-07-13T05:26:09;16.80;99.90
8914;DHT22;4492;48.736;9.092;2023-07-13T05:28:34;16.90;99.90
8914;DHT22;4492;48.736;9.092;2023-07-13T05:30:59;16.90;99.90
8914;DHT22;4492;48.736;9.092;2023-07-13T05:33:25;16.90;99.90
8914;DHT22;4492;48.736;9.092;2023-07-13T05:35:51;16.90;99.90
8914;DHT22;4492;48.736;9.092;2023-07-13T05:38:17;17.00;99.90
8914;DHT22;4492;48.736;9.092;2023-07-13T05:40:43;17.10;99.80
8914;DHT22;4492;48.736;9.092;2023-07-13T05:43:09;17.20;99.50
8914;DHT22;4492;48.736;9.092;2023-07-13T05:45:35;17.20;98.70
8914;DHT22;4492;48.736;9.092;2023-07-13T05:48:00;17.20;97.90
8914;DHT22;4492;48.736;9.092;2023-07-13T05:50:26;17.30;98.10
8914;DHT22;4492;48.736;9.092;2023-07-13T05:52:52;17.30;98.00
8914;DHT22;4492;48.736;9.092;2023-07-13T05:55:18;17.30;98.60
8914;DHT22;4492;48.736;9.092;2023-07-13T05:57:44;17.30;97.40
8914;DHT22;4492;48.736;9.092;2023-07-13T06:00:10;17.40;97.60
8914;DHT22;4492;48.736;9.092;2023-07-13T06:02:36;17.50;97.40
8914;DHT22;4492;48.736;9.092;2023-07-13T06:05:01;17.60;97.40
8914;DHT22;4492;48.736;9.092;2023-07-13T06:07:27;17.70;96.80
8914;DHT22;4492;48.736;9.092;2023-07-13T06:09:52;17.80;95.20
8914;DHT22;4492;48.736;9.092;2023-07-13T06:12:18;17.90;95.40
8914;DHT22;4492;48.736;9.092;2023-07-13T06:14:44;18.00;95.10
8914;DHT22;4492;48.736;9.092;2023-07-13T06:17:09;18.20;94.50
8914;DHT22;4492;48.736;9.092;2023-07-13T06:19:35;18.30;94.10
8914;DHT22;4492;48.736;9.092;2023-07-13T06:22:01;18.40;93.90
8914;DHT22;4492;48.736;9.092;2023-07-13T06:24:26;18.40;93.70
8914;DHT22;4492;48.736;9.092;2023-07-13T06:26:52;18.60;92.90
8914;DHT22;4492;48.736;9.092;2023-07-13T06:29:17;18.70;92.60
8914;DHT22;4492;48.736;9.092;2023-07-13T06:31:43;18.70;92.50
8914;DHT22;4492;48.736;9.092;2023-07-13T06:34:09;18.80;92.50
8914;DHT22;4492;48.736;9.092;2023-07-13T06:36:34;18.90;92.60
8914;DHT22;4492;48.736;9.092;2023-07-13T06:39:02;19.10;92.70
8914;DHT22;4492;48.736;9.092;2023-07-13T06:41:27;19.40;92.20
8914;DHT22;4492;48.736;9.092;2023-07-13T06:43:53;19.60;92.10
8914;DHT22;4492;48.736;9.092;2023-07-13T06:46:21;19.70;91.20
8914;DHT22;4492;48.736;9.092;2023-07-13T06:48:47;19.80;90.10
8914;DHT22;4492;48.736;9.092;2023-07-13T06:51:12;19.80;89.20
8914;DHT22;4492;48.736;9.092;2023-07-13T06:53:38;19.90;88.10
8914;DHT22;4492;48.736;9.092;2023-07-13T06:56:05;20.10;87.90
8914;DHT22;4492;48.736;9.092;2023-07-13T06:58:33;20.20;87.80
8914;DHT22;4492;48.736;9.092;2023-07-13T07:00:59;20.30;88.30
8914;DHT22;4492;48.736;9.092;2023-07-13T07:03:24;20.40;87.50
8914;DHT22;4492;48.736;9.092;2023-07-13T07:05:50;20.40;84.90
8914;DHT22;4492;48.736;9.092;2023-07-13T07:08:15;20.40;86.60
8914;DHT22;4492;48.736;9.092;2023-07-13T07:10:41;20.50;87.30
8914;DHT22;4492;48.736;9.092;2023-07-13T07:13:07;20.40;85.40
8914;DHT22;4492;48.736;9.092;2023-07-13T07:15:34;20.40;82.90
8914;DHT22;4492;48.736;9.092;2023-07-13T07:18:00;20.40;82.50
8914;DHT22;4492;48.736;9.092;2023-07-13T07:20:25;20.30;83.20
8914;DHT22;4492;48.736;9.092;2023-07-13T07:22:52;20.30;84.80
8914;DHT22;4492;48.736;9.092;2023-07-13T07:25:17;20.40;85.50
8914;DHT22;4492;48.736;9.092;2023-07-13T07:27:43;20.50;86.40
8914;DHT22;4492;48.736;9.092;2023-07-13T07:30:09;20.50;84.50
8914;DHT22;4492;48.736;9.092;2023-07-13T07:32:35;20.50;84.50
8914;DHT22;4492;48.736;9.092;2023-07-13T07:35:00;20.50;80.50
8914;DHT22;4492;48.736;9.092;2023-07-13T07:37:26;20.60;81.60
8914;DHT22;4492;48.736;9.092;2023-07-13T07:39:51;20.70;78.80
8914;DHT22;4492;48.736;9.092;2023-07-13T07:42:17;20.80;79.40
8914;DHT22;4492;48.736;9.092;2023-07-13T07:44:42;21.00;79.10
8914;DHT22;4492;48.736;9.092;2023-07-13T07:47:08;21.00;80.80
8914;DHT22;4492;48.736;9.092;2023-07-13T07:49:35;21.00;81.80
8914;DHT22;4492;48.736;9.092;2023-07-13T07:52:01;21.20;81.40
8914;DHT22;4492;48.736;9.092;2023-07-13T07:54:26;21.30;80.70
8914;DHT22;4492;48.736;9.092;2023-07-13T07:56:52;21.30;78.20
8914;DHT22;4492;48.736;9.092;2023-07-13T07:59:19;21.20;78.90
8914;DHT22;4492;48.736;9.092;2023-07-13T08:01:44;21.40;76.00
8914;DHT22;4492;48.736;9.092;2023-07-13T08:04:12;21.40;75.50
8914;DHT22;4492;48.736;9.092;2023-07-13T08:06:37;21.30;76.20
8914;DHT22;4492;48.736;9.092;2023-07-13T08:09:03;21.20;76.00
8914;DHT22;4492;48.736;9.092;2023-07-13T08:11:29;21.00;77.80
8914;DHT22;4492;48.736;9.092;2023-07-13T08:13:55;21.10;78.00
8914;DHT22;4492;48.736;9.092;2023-07-13T08:16:21;21.30;72.50
8914;DHT22;4492;48.736;9.092;2023-07-13T08:18:47;21.30;71.50
8914;DHT22;4492;48.736;9.092;2023-07-13T08:21:12;21.30;73.30
8914;DHT22;4492;48.736;9.092;2023-07-13T08:23:38;21.40;74.20
8914;DHT22;4492;48.736;9.092;2023-07-13T08:26:04;21.50;74.30
8914;DHT22;4492;48.736;9.092;2023-07-13T08:28:30;21.80;72.60
8914;DHT22;4492;48.736;9.092;2023-07-13T08:31:04;21.80;72.40
8914;DHT22;4492;48.736;9.092;2023-07-13T08:33:30;21.80;72.60
8914;DHT22;4492;48.736;9.092;2023-07-13T08:35:55;21.90;72.90
8914;DHT22;4492;48.736;9.092;2023-07-13T08:38:22;22.00;70.70
8914;DHT22;4492;48.736;9.092;2023-07-13T08:40:55;22.00;69.90
8914;DHT22;4492;48.736;9.092;2023-07-13T08:43:26;21.90;70.10
8914;DHT22;4492;48.736;9.092;2023-07-13T08:48:59;21.80;73.90
8914;DHT22;4492;48.736;9.092;2023-07-13T08:51:43;22.10;70.70
8914;DHT22;4492;48.736;9.092;2023-07-13T08:54:22;22.30;69.40
8914;DHT22;4492;48.736;9.092;2023-07-13T08:56:53;22.40;69.90
8914;DHT22;4492;48.736;9.092;2023-07-13T08:59:21;22.30;68.30
8914;DHT22;4492;48.736;9.092;2023-07-13T09:07:53;22.50;68.60
8914;DHT22;4492;48.736;9.092;2023-07-13T09:10:26;22.90;69.70
8914;DHT22;4492;48.736;9.092;2023-07-13T09:13:12;23.00;68.90
8914;DHT22;4492;48.736;9.092;2023-07-13T09:15:44;23.30;67.50
8914;DHT22;4492;48.736;9.092;2023-07-13T09:18:16;23.50;66.30
8914;DHT22;4492;48.736;9.092;2023-07-13T09:20:57;23.60;66.80
8914;DHT22;4492;48.736;9.092;2023-07-13T09:23:27;23.70;65.10
8914;DHT22;4492;48.736;9.092;2023-07-13T09:26:11;23.70;65.50
8914;DHT22;4492;48.736;9.092;2023-07-13T09:28:51;23.60;65.90
8914;DHT22;4492;48.736;9.092;2023-07-13T09:31:33;23.60;66.60
8914;DHT22;4492;48.736;9.092;2023-07-13T09:34:00;23.50;64.50
8914;DHT22;4492;48.736;9.092;2023-07-13T09:36:29;23.40;64.00
8914;DHT22;4492;48.736;9.092;2023-07-13T09:39:12;23.20;64.10
8914;DHT22;4492;48.736;9.092;2023-07-13T09:44:39;23.20;64.80
8914;DHT22;4492;48.736;9.092;2023-07-13T09:47:19;23.20;66.10
8914;DHT22;4492;48.736;9.092;2023-07-13T09:49:45;23.30;65.10
8914;DHT22;4492;48.736;9.092;2023-07-13T09:52:14;23.20;65.00
8914;DHT22;4492;48.736;9.092;2023-07-13T09:54:44;23.10;65.10
8914;DHT22;4492;48.736;9.092;2023-07-13T09:57:15;23.00;65.60
8914;DHT22;4492;48.736;9.092;2023-07-13T09:59:45;22.90;65.50
8914;DHT22;4492;48.736;9.092;2023-07-13T10:02:31;23.00;65.60
8914;DHT22;4492;48.736;9.092;2023-07-13T10:05:03;23.40;66.20
8914;DHT22;4492;48.736;9.092;2023-07-13T10:07:30;23.70;65.20
8914;DHT22;4492;48.736;9.092;2023-07-13T10:09:58;23.80;63.70
8914;DHT22;4492;48.736;9.092;2023-07-13T10:12:27;23.80;64.30
8914;DHT22;4492;48.736;9.092;2023-07-13T10:15:00;23.80;63.30
8914;DHT22;4492;48.736;9.092;2023-07-13T10:17:32;23.90;62.20
8914;DHT22;4492;48.736;9.092;2023-07-13T10:20:00;23.80;61.50
8914;DHT22;4492;48.736;9.092;2023-07-13T10:22:47;23.80;62.70
8914;DHT22;4492;48.736;9.092;2023-07-13T10:25:18;23.90;62.30
8914;DHT22;4492;48.736;9.092;2023-07-13T10:27:45;24.00;61.40
8914;DHT22;4492;48.736;9.092;2023-07-13T10:30:24;24.10;61.00
8914;DHT22;4492;48.736;9.092;2023-07-13T10:32:53;24.30;60.50
8914;DHT22;4492;48.736;9.092;2023-07-13T10:35:20;24.60;59.90
8914;DHT22;4492;48.736;9.092;2023-07-13T10:38:00;24.70;60.20
8914;DHT22;4492;48.736;9.092;2023-07-13T10:40:32;24.90;60.00
8914;DHT22;4492;48.736;9.092;2023-07-13T10:43:01;25.00;60.00
8914;DHT22;4492;48.736;9.092;2023-07-13T10:45:31;25.00;59.00
8914;DHT22;4492;48.736;9.092;2023-07-13T10:47:59;24.90;59.90
8914;DHT22;4492;48.736;9.092;2023-07-13T10:50:27;24.90;58.70
8914;DHT22;4492;48.736;9.092;2023-07-13T10:52:55;24.90;59.70
8914;DHT22;4492;48.736;9.092;2023-07-13T10:55:40;25.00;59.50
8914;DHT22;4492;48.736;9.092;2023-07-13T10:58:20;25.20;59.30
8914;DHT22;4492;48.736;9.092;2023-07-13T11:04:02;25.40;57.30
8914;DHT22;4492;48.736;9.092;2023-07-13T11:08:56;25.40;57.80
8914;DHT22;4492;48.736;9.092;2023-07-13T11:18:51;26.20;57.10
8914;DHT22;4492;48.736;9.092;2023-07-13T11:21:21;26.40;56.40
8914;DHT22;4492;48.736;9.092;2023-07-13T11:24:01;26.40;57.20
8914;DHT22;4492;48.736;9.092;2023-07-13T11:26:58;26.10;57.10
8914;DHT22;4492;48.736;9.092;2023-07-13T11:29:37;25.60;57.40
8914;DHT22;4492;48.736;9.092;2023-07-13T11:32:25;25.10;58.40
8914;DHT22;4492;48.736;9.092;2023-07-13T11:34:55;24.90;59.60
8914;DHT22;4492;48.736;9.092;2023-07-13T11:37:21;25.00;59.70
8914;DHT22;4492;48.736;9.092;2023-07-13T11:39:50;25.20;59.40
8914;DHT22;4492;48.736;9.092;2023-07-13T11:42:18;25.40;58.20
8914;DHT22;4492;48.736;9.092;2023-07-13T11:44:48;25.70;54.90
8914;DHT22;4492;48.736;9.092;2023-07-13T11:47:19;25.90;55.20
8914;DHT22;4492;48.736;9.092;2023-07-13T11:49:51;26.00;55.90
8914;DHT22;4492;48.736;9.092;2023-07-13T11:52:22;25.90;56.70
8914;DHT22;4492;48.736;9.092;2023-07-13T11:54:54;25.40;57.00
8914;DHT22;4492;48.736;9.092;2023-07-13T11:57:38;24.80;58.30
8914;DHT22;4492;48.736;9.092;2023-07-13T12:00:13;24.40;59.10
8914;DHT22;4492;48.736;9.092;2023-07-13T12:02:47;24.10;59.90
8914;DHT22;4492;48.736;9.092;2023-07-13T12:05:16;24.00;59.80
8914;DHT22;4492;48.736;9.092;2023-07-13T12:07:43;24.20;59.50
8914;DHT22;4492;48.736;9.092;2023-07-13T12:12:40;24.80;59.50
8914;DHT22;4492;48.736;9.092;2023-07-13T12:15:12;25.10;58.40
8914;DHT22;4492;48.736;9.092;2023-07-13T12:17:38;25.40;58.10
8914;DHT22;4492;48.736;9.092;2023-07-13T12:20:23;25.80;57.30
8914;DHT22;4492;48.736;9.092;2023-07-13T12:22:50;26.20;56.40
8914;DHT22;4492;48.736;9.092;2023-07-13T12:25:16;26.30;55.90
8914;DHT22;4492;48.736;9.092;2023-07-13T12:27:47;25.90;55.60
8914;DHT22;4492;48.736;9.092;2023-07-13T12:33:11;25.30;55.70
8914;DHT22;4492;48.736;9.092;2023-07-13T12:35:49;25.00;56.60
8914;DHT22;4492;48.736;9.092;2023-07-13T12:38:17;25.00;57.20
8914;DHT22;4492;48.736;9.092;2023-07-13T12:40:43;25.20;57.30
8914;DHT22;4492;48.736;9.092;2023-07-13T12:43:13;25.30;56.70
8914;DHT22;4492;48.736;9.092;2023-07-13T12:46:36;25.60;56.50
8914;DHT22;4492;48.736;9.092;2023-07-13T12:48:43;25.80;57.50
8914;DHT22;4492;48.736;9.092;2023-07-13T12:51:12;26.10;56.10
8914;DHT22;4492;48.736;9.092;2023-07-13T12:53:47;26.10;54.30
8914;DHT22;4492;48.736;9.092;2023-07-13T12:56:25;25.90;55.50
8914;DHT22;4492;48.736;9.092;2023-07-13T12:58:58;25.80;55.40
8914;DHT22;4492;48.736;9.092;2023-07-13T13:01:28;25.70;55.10
8914;DHT22;4492;48.736;9.092;2023-07-13T13:03:54;25.80;55.50
8914;DHT22;4492;48.736;9.092;2023-07-13T13:06:26;25.90;55.80
8914;DHT22;4492;48.736;9.092;2023-07-13T13:08:57;26.20;56.10
8914;DHT22;4492;48.736;9.092;2023-07-13T13:11:28;26.70;53.70
8914;DHT22;4492;48.736;9.092;2023-07-13T13:13:54;26.90;53.40
8914;DHT22;4492;48.736;9.092;2023-07-13T13:16:34;26.80;52.90
8914;DHT22;4492;48.736;9.092;2023-07-13T13:19:16;26.70;52.50
8914;DHT22;4492;48.736;9.092;2023-07-13T13:21:43;26.40;53.10
8914;DHT22;4492;48.736;9.092;2023-07-13T13:24:14;26.50;52.90
8914;DHT22;4492;48.736;9.092;2023-07-13T13:26:41;26.70;52.40
8914;DHT22;4492;48.736;9.092;2023-07-13T13:29:16;26.70;53.80
8914;DHT22;4492;48.736;9.092;2023-07-13T13:31:42;26.60;52.00
8914;DHT22;4492;48.736;9.092;2023-07-13T13:34:10;26.70;52.00
8914;DHT22;4492;48.736;9.092;2023-07-13T13:36:36;26.80;51.70
8914;DHT22;4492;48.736;9.092;2023-07-13T13:39:02;26.70;51.50
8914;DHT22;4492;48.736;9.092;2023-07-13T13:41:29;26.40;52.90
8914;DHT22;4492;48.736;9.092;2023-07-13T13:43:56;26.20;53.10
8914;DHT22;4492;48.736;9.092;2023-07-13T13:46:24;26.00;52.90
8914;DHT22;4492;48.736;9.092;2023-07-13T13:48:55;25.90;53.50
8914;DHT22;4492;48.736;9.092;2023-07-13T13:51:23;26.00;53.30
8914;DHT22;4492;48.736;9.092;2023-07-13T13:53:49;26.00;53.20
8914;DHT22;4492;48.736;9.092;2023-07-13T13:56:17;25.90;52.00
8914;DHT22;4492;48.736;9.092;2023-07-13T13:58:43;25.90;53.40
8914;DHT22;4492;48.736;9.092;2023-07-13T14:01:27;25.90;52.50
8914;DHT22;4492;48.736;9.092;2023-07-13T14:03:52;26.00;52.50
8914;DHT22;4492;48.736;9.092;2023-07-13T14:06:18;26.10;53.30
8914;DHT22;4492;48.736;9.092;2023-07-13T14:08:44;26.50;53.10
8914;DHT22;4492;48.736;9.092;2023-07-13T14:11:14;26.80;51.90
8914;DHT22;4492;48.736;9.092;2023-07-13T14:13:43;26.90;51.60
8914;DHT22;4492;48.736;9.092;2023-07-13T14:16:17;26.70;52.40
8914;DHT22;4492;48.736;9.092;2023-07-13T14:18:47;26.50;51.40
8914;DHT22;4492;48.736;9.092;2023-07-13T14:23:39;26.20;52.50
8914;DHT22;4492;48.736;9.092;2023-07-13T14:26:22;26.20;52.40
8914;DHT22;4492;48.736;9.092;2023-07-13T14:28:50;26.20;52.50
8914;DHT22;4492;48.736;9.092;2023-07-13T14:31:17;26.10;52.70
8914;DHT22;4492;48.736;9.092;2023-07-13T14:33:43;26.00;52.90
8914;DHT22;4492;48.736;9.092;2023-07-13T14:38:40;25.90;53.30
8914;DHT22;4492;48.736;9.092;2023-07-13T14:41:08;25.70;53.40
8914;DHT22;4492;48.736;9.092;2023-07-13T14:43:33;25.60;53.40
8914;DHT22;4492;48.736;9.092;2023-07-13T14:45:59;25.60;53.90
8914;DHT22;4492;48.736;9.092;2023-07-13T14:48:25;25.50;53.50
8914;DHT22;4492;48.736;9.092;2023-07-13T14:50:55;25.30;54.20
8914;DHT22;4492;48.736;9.092;2023-07-13T14:53:22;25.20;53.90
8914;DHT22;4492;48.736;9.092;2023-07-13T14:55:47;25.00;54.30
8914;DHT22;4492;48.736;9.092;2023-07-13T14:58:13;25.10;53.80
8914;DHT22;4492;48.736;9.092;2023-07-13T15:00:39;25.40;53.90
8914;DHT22;4492;48.736;9.092;2023-07-13T15:03:05;25.80;53.70
8914;DHT22;4492;48.736;9.092;2023-07-13T15:05:36;26.10;53.30
8914;DHT22;4492;48.736;9.092;2023-07-13T15:08:03;26.30;52.30
8914;DHT22;4492;48.736;9.092;2023-07-13T15:10:31;26.10;53.10
8914;DHT22;4492;48.736;9.092;2023-07-13T15:13:16;26.10;53.40
8914;DHT22;4492;48.736;9.092;2023-07-13T15:15:44;26.00;54.10
8914;DHT22;4492;48.736;9.092;2023-07-13T15:18:11;26.00;54.00
8914;DHT22;4492;48.736;9.092;2023-07-13T15:20:37;26.00;53.40
8914;DHT22;4492;48.736;9.092;2023-07-13T15:23:04;25.80;53.80
8914;DHT22;4492;48.736;9.092;2023-07-13T15:25:31;25.50;54.30
8914;DHT22;4492;48.736;9.092;2023-07-13T15:27:58;25.70;55.00
8914;DHT22;4492;48.736;9.092;2023-07-13T15:30:29;25.90;53.80
8914;DHT22;4492;48.736;9.092;2023-07-13T15:32:58;25.90;53.90
8914;DHT22;4492;48.736;9.092;2023-07-13T15:35:27;26.00;53.90
8914;DHT22;4492;48.736;9.092;2023-07-13T15:37:53;26.50;53.20
8914;DHT22;4492;48.736;9.092;2023-07-13T15:40:19;26.70;52.40
8914;DHT22;4492;48.736;9.092;2023-07-13T15:42:47;26.80;52.50
8914;DHT22;4492;48.736;9.092;2023-07-13T15:45:22;27.00;53.00
8914;DHT22;4492;48.736;9.092;2023-07-13T15:47:49;27.50;50.90
8914;DHT22;4492;48.736;9.092;2023-07-13T15:50:17;27.80;49.80
8914;DHT22;4492;48.736;9.092;2023-07-13T15:52:45;27.60;50.00
8914;DHT22;4492;48.736;9.092;2023-07-13T15:55:13;27.30;50.80
8914;DHT22;4492;48.736;9.092;2023-07-13T15:57:47;27.20;50.60
8914;DHT22;4492;48.736;9.092;2023-07-13T16:00:23;27.20;50.10
8914;DHT22;4492;48.736;9.092;2023-07-13T16:02:49;27.30;50.00
8914;DHT22;4492;48.736;9.092;2023-07-13T16:05:16;27.50;49.90
8914;DHT22;4492;48.736;9.092;2023-07-13T16:07:46;27.60;49.30
8914;DHT22;4492;48.736;9.092;2023-07-13T16:10:27;27.80;49.20
8914;DHT22;4492;48.736;9.092;2023-07-13T16:12:55;28.00;49.00
8914;DHT22;4492;48.736;9.092;2023-07-13T16:15:22;28.20;48.00
8914;DHT22;4492;48.736;9.092;2023-07-13T16:17:48;27.90;48.20
8914;DHT22;4492;48.736;9.092;2023-07-13T16:20:15;27.80;48.80
8914;DHT22;4492;48.736;9.092;2023-07-13T16:22:45;27.80;48.60
8914;DHT22;4492;48.736;9.092;2023-07-13T16:25:21;27.80;48.70
8914;DHT22;4492;48.736;9.092;2023-07-13T16:27:47;28.00;48.50
8914;DHT22;4492;48.736;9.092;2023-07-13T16:30:18;27.90;48.30
8914;DHT22;4492;48.736;9.092;2023-07-13T16:32:44;28.00;48.10
8914;DHT22;4492;48.736;9.092;2023-07-13T16:35:10;28.20;48.40
8914;DHT22;4492;48.736;9.092;2023-07-13T16:37:37;28.40;47.70
8914;DHT22;4492;48.736;9.092;2023-07-13T16:40:22;28.60;47.80
8914;DHT22;4492;48.736;9.092;2023-07-13T16:42:52;28.60;48.00
8914;DHT22;4492;48.736;9.092;2023-07-13T16:45:28;29.00;47.20
8914;DHT22;4492;48.736;9.092;2023-07-13T16:48:00;28.90;47.20